PILOTS ONLINE: 595    ATC ONLINE: 126

KSTS - Charles M. Schulz Sonoma County Airport

Location

IATA STS
City Santa Rosa
Country  United States
Latitude 38° 30' 32" N
Longitude 122° 48' 46" W
Elevation 128 ft
Type Medium Airport

Runways

01/19 5002 ft / 100 ft
14/32 5115 ft / 150 ft

Weather

METAR
2014/07/25 17:53
KSTS 251753Z 00000KT 10SM CLR 29/11 A2986 RMK AO2 SLP105 T02890106 10289 20111 50000
TAF
2014/07/25 18:21
TAF KSTS 251720Z 2518/2618 VRB03KT P6SM SKC 
     FM252000 19010KT P6SM SKC 
     FM260400 VRB03KT P6SM SKC

Outbound flights

Inbound flights